Data for 10/07/2007

Time Sea-Level Adjusted Pressure Absolute Pressure Temperature Relative Humidity Dew Point   
(mb) (inHg) (mb) (inHg) (C) (F) (%) (C) (F)
00:05 1020 30.12 849 25.07 2.4 36.3 79 -0.9 30.5
00:10 1020 30.12 849 25.07 2.4 36.4 80 -0.6 30.9
00:15 1020 30.12 849 25.07 2.6 36.6 78 -0.9 30.3
00:20 1020 30.12 849 25.07 2.4 36.3 79 -0.9 30.3
00:25 1020 30.12 849 25.07 2.2 35.9 78 -1.3 29.6
00:30 1020 30.12 849 25.07 2.3 36.1 78 -1.2 29.9
00:35 1020 30.12 850 25.1 2.2 35.9 79 -1.1 29.9
00:40 1020 30.12 849 25.07 2.1 35.8 78 -1.3 29.6
00:45 1020 30.12 849 25.07 2.2 36 76 -1.5 29.3
00:50 1020 30.12 849 25.07 2.4 36.3 75 -1.5 29.2
00:55 1020 30.12 850 25.1 2.4 36.3 75 -1.6 29.2
01:00 1020 30.12 850 25.1 2.3 36.2 77 -1.2 29.8
01:05 1020 30.12 849 25.07 2.4 36.2 77 -1.3 29.6
01:10 1020 30.12 849 25.07 2.5 36.4 77 -1.2 29.8
01:15 1020 30.12 849 25.07 2.5 36.5 78 -0.9 30.4
01:20 1020 30.12 849 25.07 2.5 36.5 77 -1.2 29.8
01:25 1020 30.12 849 25.07 2.5 36.5 78 -0.9 30.4
01:30 1020 30.12 849 25.07 2.5 36.5 77 -1.2 29.9
01:35 1020 30.12 850 25.1 2.5 36.5 75 -1.5 29.3
01:40 1020 30.12 850 25.1 2.5 36.6 76 -1.3 29.6
01:45 1020 30.12 850 25.1 2.5 36.5 76 -1.3 29.7
01:50 1020 30.12 850 25.1 2.6 36.6 74 -1.5 29.2
01:55 1020 30.12 850 25.1 2.6 36.7 74 -1.5 29.2
02:00 1021 30.15 850 25.1 2.6 36.7 74 -1.6 29.2
02:05 1021 30.15 850 25.1 2.7 36.8 73 -1.6 29.1
02:10 1021 30.15 850 25.1 2.7 36.9 74 -1.5 29.4
02:15 1021 30.15 850 25.1 2.7 36.8 72 -1.8 28.8
02:20 1021 30.15 850 25.1 2.6 36.7 73 -1.9 28.7
02:25 1021 30.15 850 25.1 2.5 36.5 73 -1.8 28.7
02:30 1021 30.15 850 25.1 2.6 36.6 73 -1.8 28.8
02:35 1021 30.15 850 25.1 2.5 36.6 73 -1.9 28.6
02:40 1021 30.15 850 25.1 2.4 36.4 74 -1.7 28.9
02:45 1021 30.15 850 25.1 2.5 36.5 73 -1.9 28.6
02:50 1021 30.15 850 25.1 2.6 36.7 73 -1.8 28.7
02:55 1021 30.15 850 25.1 2.7 36.8 72 -1.8 28.8
03:00 1021 30.15 850 25.1 2.7 36.9 73 -1.7 28.9
03:05 1021 30.15 850 25.1 2.7 36.8 72 -1.8 28.7
03:10 1021 30.15 850 25.1 2.7 36.8 71 -2 28.4
03:15 1021 30.15 850 25.1 2.7 36.8 71 -2 28.4
03:20 1021 30.15 850 25.1 2.7 36.9 70 -2.3 27.9
03:25 1021 30.15 850 25.1 2.7 36.8 72 -1.8 28.8
03:30 1021 30.15 850 25.1 2.7 36.8 72 -1.9 28.5
03:35 1021 30.15 850 25.1 2.5 36.5 73 -1.8 28.8
03:40 1021 30.15 851 25.13 2.4 36.4 72 -2 28.3
03:45 1021 30.15 850 25.1 2.4 36.3 73 -1.9 28.5
03:50 1021 30.15 850 25.1 2.3 36.1 75 -1.8 28.8
03:55 1021 30.15 851 25.13 2.1 35.8 75 -1.9 28.5
04:00 1021 30.15 851 25.13 2.1 35.8 76 -1.6 29.2
04:05 1021 30.15 851 25.13 2.1 35.8 76 -1.7 28.9
04:10 1021 30.15 851 25.13 2.1 35.8 74 -2 28.5
04:15 1021 30.15 851 25.13 2.2 35.9 74 -2 28.3
04:20 1021 30.15 851 25.13 2.2 35.9 74 -1.9 28.5
04:25 1021 30.15 851 25.13 2.2 36 74 -1.9 28.6
04:30 1021 30.15 851 25.13 2.2 35.9 75 -1.8 28.7
04:35 1021 30.15 851 25.13 2.2 35.9 75 -1.7 28.9
04:40 1021 30.15 851 25.13 2.1 35.8 75 -1.8 28.7
04:45 1021 30.15 851 25.13 2.1 35.7 78 -1.4 29.5
04:50 1021 30.15 851 25.13 2 35.5 81 -1 30.2
04:55 1021 30.15 851 25.13 1.8 35.2 80 -1.3 29.7
05:00 1022 30.18 851 25.13 1.7 35.1 80 -1.4 29.4
05:05 1022 30.18 851 25.13 1.7 35.1 80 -1.4 29.4
05:10 1021 30.15 851 25.13 1.7 35.1 79 -1.5 29.3
05:15 1021 30.15 851 25.13 1.7 35 79 -1.6 29
05:20 1021 30.15 851 25.13 1.8 35.2 76 -2 28.3
05:25 1021 30.15 851 25.13 1.9 35.3 75 -2.2 28.1
05:30 1021 30.15 850 25.1 1.9 35.4 76 -1.8 28.7
05:35 1021 30.15 850 25.1 1.9 35.4 79 -1.4 29.5
05:40 1021 30.15 850 25.1 1.7 35.1 76 -2 28.3
05:45 1021 30.15 850 25.1 1.7 35 77 -1.9 28.6
05:50 1021 30.15 850 25.1 1.6 34.9 77 -1.9 28.6
05:55 1021 30.15 850 25.1 1.5 34.7 79 -1.8 28.8
06:00 1021 30.15 850 25.1 1.4 34.6 79 -1.8 28.7
06:05 1021 30.15 850 25.1 1.4 34.6 76 -2.3 27.9
06:10 1021 30.15 850 25.1 1.5 34.8 76 -2.3 27.9
06:15 1021 30.15 850 25.1 1.5 34.6 77 -2.2 28
06:20 1021 30.15 850 25.1 1.3 34.3 77 -2.3 27.8
06:25 1021 30.15 850 25.1 1.2 34.2 77 -2.4 27.8
06:30 1021 30.15 850 25.1 1.2 34.1 76 -2.6 27.4
06:35 1021 30.15 850 25.1 1.1 33.9 77 -2.6 27.4
06:40 1021 30.15 850 25.1 0.9 33.6 78 -2.6 27.3
06:45 1021 30.15 850 25.1 0.7 33.3 77 -2.9 26.8
06:50 1021 30.15 850 25.1 0.7 33.2 77 -3 26.6
06:55 1021 30.15 850 25.1 0.5 32.9 78 -2.9 26.8
07:00 1021 30.15 850 25.1 0.4 32.8 78 -3 26.7
07:05 1021 30.15 850 25.1 0.3 32.5 81 -2.7 27.2
07:10 1021 30.15 850 25.1 0.2 32.3 81 -2.7 27.1
07:15 1021 30.15 850 25.1 0 32.1 83 -2.4 27.6
07:20 1021 30.15 850 25.1 -0.1 31.8 83 -2.6 27.3
07:25 1021 30.15 850 25.1 -0.2 31.6 84 -2.7 27.2
07:30 1021 30.15 850 25.1 -0.2 31.6 83 -2.7 27.1
07:35 1021 30.15 851 25.13 -0.2 31.6 80 -3.2 26.3
07:40 1021 30.15 850 25.1 -0 32 81 -2.9 26.7
07:45 1021 30.15 850 25.1 0.1 32.3 78 -3.3 26.1
07:50 1021 30.15 850 25.1 0.3 32.5 77 -3.3 26.1
07:55 1021 30.15 850 25.1 0.2 32.4 77 -3.4 26
08:00 1021 30.15 850 25.1 0.1 32.1 76 -3.6 25.5
08:05 1021 30.15 850 25.1 -0.1 31.8 76 -3.8 25.2
08:10 1021 30.15 850 25.1 -0 32 76 -3.7 25.3
08:15 1021 30.15 851 25.13 -0 31.9 76 -3.7 25.3
08:20 1021 30.15 850 25.1 -0 32 75 -3.9 25
08:25 1021 30.15 851 25.13 0.3 32.5 75 -3.7 25.3
08:30 1021 30.15 851 25.13 0.3 32.5 76 -3.6 25.6
08:35 1021 30.15 851 25.13 0.2 32.4 75 -3.6 25.5
08:40 1021 30.15 851 25.13 0.3 32.6 76 -3.4 25.8
08:45 1021 30.15 850 25.1 0.6 33 74 -3.5 25.6
08:50 1021 30.15 850 25.1 0.7 33.3 74 -3.3 26
08:55 1021 30.15 850 25.1 0.9 33.6 76 -2.8 27
09:00 1021 30.15 850 25.1 0.4 32.8 78 -3 26.6
09:05 1021 30.15 850 25.1 0.4 32.7 78 -3.1 26.4
09:10 1021 30.15 850 25.1 0.4 32.8 78 -3 26.7
09:15 1021 30.15 850 25.1 0.7 33.2 77 -3 26.6
09:20 1021 30.15 850 25.1 0.9 33.7 75 -3.1 26.4
09:25 1021 30.15 850 25.1 1.1 34 74 -3 26.6
09:30 1021 30.15 850 25.1 1.5 34.6 74 -2.8 27
09:35 1021 30.15 850 25.1 1.8 35.2 71 -3 26.7
09:40 1021 30.15 850 25.1 2.4 36.3 67 -3.1 26.4
09:45 1021 30.15 850 25.1 3.2 37.8 62 -3.5 25.8
09:50 1021 30.15 850 25.1 3.8 38.9 60 -3.3 26
09:55 1021 30.15 850 25.1 3.5 38.2 62 -3.1 26.4
10:00 1021 30.15 850 25.1 3.6 38.5 59 -3.8 25.2
10:05 1021 30.15 850 25.1 4.1 39.4 58 -3.3 26.1
10:10 1021 30.15 850 25.1 4 39.2 58 -3.6 25.6
10:15 1021 30.15 850 25.1 4.1 39.4 57 -3.5 25.6
10:20 1021 30.15 850 25.1 4.6 40.3 55 -3.7 25.3
10:25 1021 30.15 850 25.1 5.2 41.3 52 -3.8 25.1
10:30 1021 30.15 850 25.1 5.2 41.3 53 -3.6 25.6
10:35 1021 30.15 850 25.1 5.2 41.3 51 -4.1 24.7
10:40 1021 30.15 850 25.1 5.4 41.7 52 -3.6 25.6
10:45 1021 30.15 850 25.1 5.4 41.7 52 -3.7 25.3
10:50 1021 30.15 850 25.1 5.5 42 52 -3.5 25.7
10:55 1021 30.15 850 25.1 5.4 41.8 52 -3.6 25.5
11:00 1021 30.15 850 25.1 5.5 41.8 52 -3.7 25.3
11:05 1021 30.15 850 25.1 5.9 42.7 48 -4.1 24.6
11:10 1021 30.15 850 25.1 6.2 43.1 46 -4.5 23.9
11:15 1021 30.15 850 25.1 6.5 43.7 43 -5.1 22.8
11:20 1021 30.15 850 25.1 6.9 44.4 45 -4.3 24.3
11:25 1021 30.15 850 25.1 7.1 44.9 43 -4.5 23.9
11:30 1021 30.15 850 25.1 7.3 45.1 45 -3.8 25.1
11:35 1021 30.15 850 25.1 7.2 45 44 -4.1 24.7
11:40 1021 30.15 850 25.1 6.8 44.3 46 -4 24.9
11:45 1021 30.15 850 25.1 6.6 43.9 44 -4.7 23.5
11:50 1021 30.15 850 25.1 7.1 44.8 43 -4.5 24
11:55 1021 30.15 850 25.1 7.6 45.6 44 -3.9 25
12:00 1021 30.15 850 25.1 7.5 45.4 44 -4 24.9
12:05 1021 30.15 850 25.1 7.6 45.8 43 -4.1 24.6
12:10 1021 30.15 850 25.1 7.5 45.5 43 -4.4 24.1
12:15 1020 30.12 850 25.1 7.8 46 41 -4.5 23.9
12:20 1020 30.12 850 25.1 8.3 46.9 41 -4.3 24.3
12:25 1020 30.12 850 25.1 8.1 46.6 42 -3.9 24.9
12:30 1020 30.12 850 25.1 7.9 46.3 42 -4.2 24.5
12:35 1020 30.12 849 25.07 7.9 46.2 43 -4 24.8
12:40 1020 30.12 849 25.07 7.8 46.1 44 -3.6 25.5
12:45 1020 30.12 849 25.07 7.7 45.9 41 -4.7 23.6
12:50 1020 30.12 849 25.07 7.7 45.8 42 -4.4 24.1
12:55 1020 30.12 849 25.07 7.9 46.1 44 -3.8 25.2
13:00 1020 30.12 849 25.07 8 46.3 43 -3.9 25
13:05 1020 30.12 849 25.07 8 46.3 41 -4.6 23.8
13:10 1020 30.12 849 25.07 7.8 46.1 43 -3.9 24.9
13:15 1020 30.12 849 25.07 7.8 46.1 45 -3.4 25.9
13:20 1020 30.12 849 25.07 8.2 46.7 45 -2.9 26.8
13:25 1020 30.12 849 25.07 8 46.3 45 -3.3 26.1
13:30 1020 30.12 849 25.07 7.7 45.9 46 -3.1 26.5
13:35 1019 30.09 849 25.07 7.9 46.2 45 -3.3 26.1
13:40 1019 30.09 849 25.07 8.1 46.6 45 -3 26.5
13:45 1019 30.09 848 25.04 8.3 46.9 44 -3.2 26.3
13:50 1019 30.09 848 25.04 8.4 47.2 46 -2.5 27.5
13:55 1019 30.09 848 25.04 8.5 47.2 44 -3.1 26.4
14:00 1019 30.09 848 25.04 8.4 47.2 46 -2.5 27.5
14:05 1019 30.09 848 25.04 8.4 47.2 45 -2.8 27
14:10 1019 30.09 848 25.04 8.5 47.3 45 -2.9 26.8
14:15 1019 30.09 848 25.04 8.3 46.9 45 -2.8 26.9
14:20 1019 30.09 848 25.04 8.3 46.9 45 -3.1 26.5
14:25 1019 30.09 848 25.04 8.6 47.5 44 -2.9 26.8
14:30 1019 30.09 848 25.04 8.6 47.6 46 -2.3 27.8
14:35 1019 30.09 848 25.04 8.6 47.4 46 -2.4 27.6
14:40 1019 30.09 848 25.04 8.2 46.8 47 -2.4 27.6
14:45 1019 30.09 848 25.04 8.1 46.6 51 -1.3 29.7
14:50 1019 30.09 848 25.04 7.8 46.1 52 -1.3 29.7
14:55 1019 30.09 848 25.04 7.2 45 52 -2 28.4
15:00 1019 30.09 848 25.04 7.2 44.9 54 -1.5 29.3
15:05 1019 30.09 848 25.04 7.3 45.2 52 -1.7 28.9
15:10 1019 30.09 848 25.04 7.5 45.4 52 -1.8 28.7
15:15 1019 30.09 848 25.04 7.3 45.2 53 -1.7 29
15:20 1019 30.09 848 25.04 7.3 45.1 52 -1.8 28.7
15:25 1019 30.09 848 25.04 7.1 44.7 53 -1.8 28.8
15:30 1019 30.09 848 25.04 7 44.6 55 -1.4 29.5
15:35 1019 30.09 848 25.04 7 44.6 55 -1.4 29.5
15:40 1019 30.09 848 25.04 6.9 44.4 57 -1 30.2
15:45 1019 30.09 848 25.04 6.7 44.1 57 -1.2 29.9
15:50 1019 30.09 848 25.04 6.6 43.9 58 -1.1 30
15:55 1019 30.09 848 25.04 6.5 43.8 56 -1.6 29.2
16:00 1019 30.09 848 25.04 6.5 43.6 58 -1.1 30
16:05 1019 30.09 848 25.04 6.4 43.5 62 -0.4 31.3
16:10 1019 30.09 848 25.04 6.2 43.1 64 -0.2 31.7
16:15 1019 30.09 848 25.04 6 42.7 64 -0.2 31.6
16:20 1019 30.09 848 25.04 5.8 42.5 63 -0.6 31
16:25 1019 30.09 848 25.04 5.7 42.3 64 -0.6 30.9
16:30 1019 30.09 848 25.04 5.7 42.3 64 -0.6 30.9
16:35 1018 30.06 848 25.04 5.8 42.4 65 -0.2 31.6
16:40 1018 30.06 848 25.04 5.7 42.3 66 -0.1 31.8
16:45 1018 30.06 848 25.04 5.7 42.2 66 -0.1 31.9
16:50 1018 30.06 848 25.04 5.7 42.2 69 0.5 32.9
16:55 1018 30.06 848 25.04 5.7 42.3 73 1.2 34.2
17:00 1018 30.06 848 25.04 5.8 42.4 74 1.5 34.8
17:05 1018 30.06 848 25.04 5.8 42.4 75 1.7 35.1
17:10 1018 30.06 848 25.04 5.8 42.4 74 1.6 34.8
17:15 1018 30.06 848 25.04 5.7 42.2 76 1.7 35.1
17:20 1018 30.06 848 25.04 5.7 42.2 73 1.3 34.3
17:25 1018 30.06 848 25.04 5.5 42 73 1.1 34
17:30 1018 30.06 848 25.04 5.5 41.9 73 1 33.7
17:35 1018 30.06 848 25.04 5.6 42.1 73 1.1 34
17:40 1018 30.06 848 25.04 5.7 42.2 75 1.6 34.8
17:45 1018 30.06 848 25.04 5.4 41.8 77 1.8 35.2
17:50 1018 30.06 848 25.04 5.4 41.7 78 1.8 35.2
17:55 1018 30.06 848 25.04 5.4 41.7 75 1.4 34.5
18:00 1018 30.06 848 25.04 5.4 41.7 76 1.4 34.6
18:05 1018 30.06 848 25.04 5.3 41.6 75 1.2 34.2
18:10 1018 30.06 848 25.04 5.2 41.4 76 1.3 34.4
18:15 1018 30.06 848 25.04 5.2 41.3 76 1.4 34.5
18:20 1018 30.06 848 25.04 5.3 41.5 76 1.4 34.6
18:25 1018 30.06 848 25.04 5.4 41.8 75 1.3 34.3
18:30 1018 30.06 848 25.04 5.5 41.8 75 1.4 34.6
18:35 1018 30.06 848 25.04 5.4 41.7 74 1.2 34.2
18:40 1018 30.06 848 25.04 5.2 41.4 76 1.3 34.4
18:45 1018 30.06 848 25.04 5.1 41.2 77 1.4 34.5
18:50 1018 30.06 848 25.04 5.1 41.2 77 1.3 34.4
18:55 1018 30.06 848 25.04 5 41.1 77 1.4 34.5
19:00 1018 30.06 848 25.04 5.1 41.1 78 1.5 34.7
19:05 1018 30.06 848 25.04 5.1 41.1 77 1.4 34.6
19:10 1018 30.06 848 25.04 5.1 41.3 77 1.4 34.5
19:15 1018 30.06 848 25.04 5.2 41.4 77 1.5 34.7
19:20 1018 30.06 848 25.04 5.2 41.3 78 1.6 34.9
19:25 1018 30.06 848 25.04 5.2 41.3 78 1.7 35
19:30 1018 30.06 848 25.04 5.2 41.4 78 1.6 34.9
19:35 1018 30.06 848 25.04 5.2 41.3 79 1.7 35.1
19:40 1018 30.06 848 25.04 5.2 41.3 78 1.7 35
19:45 1018 30.06 848 25.04 5.3 41.5 78 1.8 35.2
19:50 1018 30.06 848 25.04 5.3 41.6 78 1.8 35.3
19:55 1018 30.06 848 25.04 5.4 41.8 78 1.9 35.5
20:00 1018 30.06 848 25.04 5.4 41.7 79 2.1 35.7
20:05 1018 30.06 848 25.04 5.4 41.6 79 2 35.6
20:10 1018 30.06 848 25.04 5.4 41.7 80 2.2 35.9
20:15 1018 30.06 848 25.04 5.4 41.8 77 1.8 35.3
20:20 1018 30.06 848 25.04 5.5 41.9 79 2.1 35.9
20:25 1018 30.06 848 25.04 5.5 41.9 78 2 35.6
20:30 1018 30.06 848 25.04 5.6 42.1 77 2 35.6
20:35 1018 30.06 848 25.04 6 42.8 75 1.8 35.3
20:40 1018 30.06 848 25.04 6.2 43.2 76 2.3 36.1
20:45 1018 30.06 848 25.04 6 42.8 79 2.5 36.6
20:50 1018 30.06 848 25.04 5.7 42.2 80 2.5 36.5
20:55 1018 30.06 848 25.04 5.6 42.2 79 2.3 36.1
21:00 1018 30.06 848 25.04 5.9 42.6 77 2.2 35.9
21:05 1018 30.06 848 25.04 6.2 43.1 74 1.9 35.5
21:10 1018 30.06 848 25.04 6.4 43.5 73 2 35.6
21:15 1018 30.06 848 25.04 6.5 43.7 73 1.9 35.5
21:20 1019 30.09 848 25.04 6.7 44.1 71 1.8 35.3
21:25 1019 30.09 848 25.04 6.8 44.3 70 1.8 35.2
21:30 1019 30.09 848 25.04 6.8 44.3 71 1.9 35.5
21:35 1019 30.09 848 25.04 6.8 44.3 71 1.9 35.4
21:40 1019 30.09 848 25.04 6.7 44.1 71 2 35.5
21:45 1019 30.09 848 25.04 6.7 44.1 71 1.9 35.4
21:50 1019 30.09 848 25.04 6.7 44 72 2 35.6
21:55 1019 30.09 848 25.04 6.5 43.7 73 2 35.6
22:00 1019 30.09 848 25.04 6.4 43.4 74 2 35.6
22:05 1019 30.09 848 25.04 6.3 43.3 74 1.9 35.5
22:10 1019 30.09 848 25.04 6.3 43.3 74 2 35.6
22:15 1019 30.09 848 25.04 6.3 43.3 75 2.1 35.8
22:20 1019 30.09 848 25.04 6.2 43.2 75 2.1 35.7
22:25 1019 30.09 848 25.04 6.2 43.2 75 2.2 36
22:30 1019 30.09 848 25.04 6.2 43.2 75 2.1 35.7
22:35 1019 30.09 848 25.04 6.4 43.5 75 2.2 36
22:40 1019 30.09 848 25.04 6.3 43.4 74 2.1 35.8
22:45 1019 30.09 848 25.04 6.4 43.6 74 2.1 35.8
22:50 1019 30.09 848 25.04 6.4 43.6 75 2.3 36.1
22:55 1019 30.09 848 25.04 6.4 43.5 73 1.9 35.4
23:00 1019 30.09 848 25.04 6.6 43.8 73 2 35.7
23:05 1019 30.09 848 25.04 6.5 43.6 75 2.3 36.1
23:10 1019 30.09 848 25.04 6.4 43.4 74 2 35.6
23:15 1019 30.09 848 25.04 6.6 43.9 72 1.9 35.4
23:20 1019 30.09 848 25.04 6.8 44.3 72 2.1 35.7
23:25 1019 30.09 848 25.04 6.8 44.2 72 2.2 36
23:30 1019 30.09 848 25.04 6.8 44.2 72 2.2 35.9
23:35 1019 30.09 848 25.04 7 44.6 70 2 35.6
23:40 1019 30.09 848 25.04 7.3 45.1 70 2.2 36
23:45 1019 30.09 848 25.04 7.4 45.3 71 2.6 36.6
23:50 1018 30.06 848 25.04 7.1 44.8 73 2.5 36.6
23:55 1019 30.09 848 25.04 7.1 44.9 74 2.7 36.9
24:00 1019 30.09 848 25.04 7.2 45 75 3.1 37.6